Air Resources Laboratory banner image
Air Resources Laboratory web site National Oceanic and Atmospheric Administration (NOAA)

sd metar


K2WX 111456Z AUTO 31029G37KT 03/M03 A3016 RMK AO1 PK WND 31045/1404 SLP236
 T00281028 53023=
K8D3 111456Z AUTO 34023G37KT 02/00 A2989 RMK AO1 PK WND 35041/1440 SLP138 60002
 T00220000 53044=
K9V9 111455Z AUTO 31026G33KT 10SM OVC035 07/00 A3007 RMK AO2 T00660000=
KABR 111453Z AUTO 34023G32KT 10SM SCT019 BKN024 OVC030 04/01 A2998 RMK AO2 PK
 WND 33036/1357 RAB08E41 SLP166 P0000 60000 T00390011 53040=
KATY 111453Z AUTO 33022G32KT 10SM OVC009 02/01 A2988 RMK AO2 PK WND 33035/1428
 UPB06E08SNB1357E06 CIG 008V013 SLP133 P0000 60000 T00170011 53030=
KBKX 111456Z AUTO 33023G28KT 10SM UP OVC013 03/01 A2986 RMK AO2 PK WND
 33032/1445 RAE13UPB1357E04B52 SLP141 P0000 6//// T00280006 53019=
KCUT 111453Z AUTO 34016G33KT 310V010 10SM CLR 03/M16 A3016 RMK AO2 PK WND
 34038/1440 SLP210 T00331156 53001=
KD07 111456Z AUTO 33030G38KT 03/M02 A3016 RMK AO1 PK WND 32038/1453 SLP233
 T00331017 53023=
KFSD 111456Z 32024G34KT 10SM OVC020 05/01 A2988 RMK AO2 PK WND 31034/1453 RAE09
 SLP131 P0000 60000 T00500011 53016=
KHON 111455Z AUTO 33023G35KT 10SM BKN030 OVC038 05/01 A2997 RMK AO2 PK WND
 33039/1402 SLP157 T00500006 53024=
KIEN 111452Z AUTO 28006KT 10SM CLR 04/M07 A3023 RMK AO2 SLP248 T00441067 53007=
KLUD 111455Z AUTO 25008KT 10SM CLR 10/M06 A3024 RMK AO2 T00951060=
KMBG 111452Z AUTO 33027G34KT 10SM BKN026 OVC032 04/M01 A3004 RMK AO2 PK WND
 33035/1409 SLP185 T00441006 51031=
KMHE 111453Z AUTO 32032G37KT 10SM OVC030 06/01 A2998 RMK AO2 PK WND 32038/1443
 SLP163 T00560006 53022=
KPHP 111455Z AUTO 33028G38KT 10SM OVC043 06/M03 A3016 RMK AO2 PK WND 32040/1440
 SLP220 T00561028 51017=
KPIR 111453Z AUTO 33031G36KT 10SM BKN038 OVC050 06/M01 A3010 RMK AO2 PK WND
 32040/1404 SLP200 T00561011 53025=
KRAP 111452Z 33035G47KT 10SM CLR 06/M07 A3019 RMK AO2 PK WND 32048/1357 SLP230
 T00611072 53012=
KRCA 111456Z 32032G43KT 10SM BKN170 06/M07 A3020 RMK PK WND 34047/1428 SLP236
 T00551074 $=
KSPF 111455Z AUTO 28014G26KT 10SM CLR 03/M07 A3030 RMK AO2=
KYKN 111456Z AUTO 30029G38KT 10SM OVC033 06/M01 A2996 RMK AO2 PK WND 30038/1451
 SLP167 T00611011 53014=